createdAt,value
2017-11-07T00:00:25.311Z,983.22
2017-11-07T00:01:25.228Z,983.24
2017-11-07T00:02:25.149Z,983.21
2017-11-07T00:03:25.069Z,983.26
2017-11-07T00:04:45.968Z,983.26
2017-11-07T00:05:24.908Z,983.23
2017-11-07T00:06:24.825Z,983.24
2017-11-07T00:07:24.744Z,983.23
2017-11-07T00:08:24.662Z,983.24
2017-11-07T00:09:24.597Z,983.25
2017-11-07T00:10:45.480Z,983.24
2017-11-07T00:11:24.419Z,983.25
2017-11-07T00:12:24.340Z,983.27
2017-11-07T00:13:24.257Z,983.26
2017-11-07T00:14:24.179Z,983.25
2017-11-07T00:15:24.096Z,983.23
2017-11-07T00:16:45.971Z,983.23
2017-11-07T00:17:23.937Z,983.19
2017-11-07T00:18:23.852Z,983.21
2017-11-07T00:19:23.776Z,983.20
2017-11-07T00:20:23.690Z,983.15
2017-11-07T00:21:23.614Z,983.17
2017-11-07T00:22:45.362Z,983.16
2017-11-07T00:23:23.449Z,983.13
2017-11-07T00:24:23.376Z,983.13
2017-11-07T00:25:23.284Z,983.11
2017-11-07T00:26:23.207Z,983.13
2017-11-07T00:27:23.124Z,983.16
2017-11-07T00:28:44.506Z,983.09
2017-11-07T00:29:22.964Z,983.07
2017-11-07T00:30:22.885Z,983.04
2017-11-07T00:31:22.806Z,983.05
2017-11-07T00:32:22.723Z,983.09
2017-11-07T00:33:22.640Z,983.09
2017-11-07T00:34:44.719Z,983.07
2017-11-07T00:35:22.529Z,983.08
2017-11-07T00:36:22.392Z,983.05
2017-11-07T00:37:22.318Z,983.04
2017-11-07T00:38:22.233Z,983.01
2017-11-07T00:39:22.152Z,983.02
2017-11-07T00:40:43.616Z,983.03
2017-11-07T00:41:21.991Z,983.04
2017-11-07T00:42:21.911Z,983.05
2017-11-07T00:43:21.829Z,983.10
2017-11-07T00:44:21.749Z,983.04
2017-11-07T00:45:21.670Z,983.07
2017-11-07T00:46:42.749Z,983.07
2017-11-07T00:47:21.505Z,983.10
2017-11-07T00:48:21.425Z,983.07
2017-11-07T00:49:21.344Z,983.06
2017-11-07T00:50:21.262Z,983.08
2017-11-07T00:51:21.181Z,983.12
2017-11-07T00:52:42.154Z,983.10
2017-11-07T00:53:21.022Z,983.09
2017-11-07T00:54:20.934Z,983.08
2017-11-07T00:55:20.858Z,983.05
2017-11-07T00:56:20.777Z,983.07
2017-11-07T00:57:20.697Z,983.04
2017-11-07T00:58:42.379Z,983.02
2017-11-07T00:59:20.539Z,983.02
2017-11-07T01:00:21.231Z,983.02
2017-11-07T01:01:20.375Z,982.95
2017-11-07T01:02:20.288Z,983.01
2017-11-07T01:03:20.209Z,982.97
2017-11-07T01:04:41.960Z,982.95
2017-11-07T01:05:20.050Z,982.96
2017-11-07T01:06:19.966Z,982.96
2017-11-07T01:07:19.888Z,982.93
2017-11-07T01:08:19.806Z,982.92
2017-11-07T01:09:19.725Z,982.86
2017-11-07T01:10:41.559Z,982.85
2017-11-07T01:11:19.564Z,982.87
2017-11-07T01:12:19.483Z,982.86
2017-11-07T01:13:19.408Z,982.83
2017-11-07T01:14:19.997Z,982.84
2017-11-07T01:15:19.238Z,982.84
2017-11-07T01:16:40.723Z,982.81
2017-11-07T01:17:19.086Z,982.82
2017-11-07T01:18:18.998Z,982.85
2017-11-07T01:19:18.920Z,982.83
2017-11-07T01:20:19.611Z,982.79
2017-11-07T01:21:18.754Z,982.80
2017-11-07T01:22:40.398Z,982.73
2017-11-07T01:23:18.588Z,982.71
2017-11-07T01:24:18.514Z,982.70
2017-11-07T01:25:18.436Z,982.70
2017-11-07T01:26:18.349Z,982.72
2017-11-07T01:27:18.272Z,982.68
2017-11-07T01:28:39.837Z,982.70
2017-11-07T01:29:18.104Z,982.67
2017-11-07T01:30:18.029Z,982.68
2017-11-07T01:31:17.949Z,982.61
2017-11-07T01:32:17.866Z,982.59
2017-11-07T01:33:17.786Z,982.65
2017-11-07T01:34:40.225Z,982.62
2017-11-07T01:35:17.629Z,982.61
2017-11-07T01:36:17.542Z,982.66
2017-11-07T01:37:17.458Z,982.63
2017-11-07T01:38:17.385Z,982.58
2017-11-07T01:39:17.305Z,982.57
2017-11-07T01:40:38.944Z,982.54
2017-11-07T01:41:17.146Z,982.52
2017-11-07T01:42:17.816Z,982.56
2017-11-07T01:43:19.048Z,982.51
2017-11-07T01:44:16.894Z,982.49
2017-11-07T01:45:16.817Z,982.50
2017-11-07T01:46:40.176Z,982.43
2017-11-07T01:47:16.647Z,982.50
2017-11-07T01:48:17.275Z,982.51
2017-11-07T01:49:16.512Z,982.46
2017-11-07T01:50:16.409Z,982.53
2017-11-07T01:51:16.324Z,982.48
2017-11-07T01:52:40.156Z,982.51
2017-11-07T01:53:16.687Z,982.50
2017-11-07T01:54:16.082Z,982.49
2017-11-07T01:55:16.011Z,982.45
2017-11-07T01:56:15.924Z,982.46
2017-11-07T01:57:15.845Z,982.42
2017-11-07T01:58:40.137Z,982.40
2017-11-07T01:59:15.677Z,982.43
2017-11-07T02:00:18.097Z,982.38
2017-11-07T02:01:15.541Z,982.42
2017-11-07T02:02:15.479Z,982.40
2017-11-07T02:03:15.541Z,982.41
2017-11-07T02:04:42.500Z,982.41
2017-11-07T02:05:15.483Z,982.38
2017-11-07T02:06:15.426Z,982.41
2017-11-07T02:07:15.450Z,982.40
2017-11-07T02:08:15.479Z,982.42
2017-11-07T02:09:15.483Z,982.42
2017-11-07T02:10:36.998Z,982.40
2017-11-07T02:11:15.479Z,982.46
2017-11-07T02:12:14.903Z,982.41
2017-11-07T02:13:15.430Z,982.39
2017-11-07T02:14:15.485Z,982.34
2017-11-07T02:15:15.044Z,982.34
2017-11-07T02:16:39.510Z,982.34
2017-11-07T02:17:14.330Z,982.29
2017-11-07T02:18:14.333Z,982.29
2017-11-07T02:19:14.939Z,982.25
2017-11-07T02:20:14.476Z,982.30
2017-11-07T02:21:14.459Z,982.27
2017-11-07T02:22:39.569Z,982.29
2017-11-07T02:23:14.648Z,982.29
2017-11-07T02:24:14.462Z,982.32
2017-11-07T02:25:14.582Z,982.29
2017-11-07T02:26:13.664Z,982.36
2017-11-07T02:27:14.092Z,982.38
2017-11-07T02:28:38.456Z,982.35
2017-11-07T02:29:16.373Z,982.36
2017-11-07T02:30:13.377Z,982.33
2017-11-07T02:31:13.506Z,982.33
2017-11-07T02:32:13.464Z,982.32
2017-11-07T02:33:13.711Z,982.32
2017-11-07T02:34:36.785Z,982.28
2017-11-07T02:35:14.990Z,982.32
2017-11-07T02:36:14.841Z,982.32
2017-11-07T02:37:13.400Z,982.35
2017-11-07T02:38:13.384Z,982.30
2017-11-07T02:39:13.036Z,982.32
2017-11-07T02:40:34.990Z,982.34
2017-11-07T02:41:13.036Z,982.29
2017-11-07T02:42:13.692Z,982.31
2017-11-07T02:43:12.822Z,982.31
2017-11-07T02:44:12.690Z,982.33
2017-11-07T02:45:12.770Z,982.32
2017-11-07T02:46:34.373Z,982.28
2017-11-07T02:47:12.255Z,982.28
2017-11-07T02:48:12.140Z,982.28
2017-11-07T02:49:15.466Z,982.21
2017-11-07T02:50:11.750Z,982.27
2017-11-07T02:51:11.730Z,982.25
2017-11-07T02:52:33.553Z,982.25
2017-11-07T02:53:12.029Z,982.25
2017-11-07T02:54:11.898Z,982.19
2017-11-07T02:55:11.778Z,982.26
2017-11-07T02:56:12.950Z,982.21
2017-11-07T02:57:11.521Z,982.20
2017-11-07T02:58:36.335Z,982.18
2017-11-07T02:59:11.594Z,982.15
2017-11-07T03:00:11.672Z,982.16
2017-11-07T03:01:10.797Z,982.13
2017-11-07T03:02:11.472Z,982.11
2017-11-07T03:03:11.438Z,982.12
2017-11-07T03:04:34.312Z,982.14
2017-11-07T03:05:11.614Z,982.09
2017-11-07T03:06:10.774Z,982.12
2017-11-07T03:07:10.832Z,982.08
2017-11-07T03:08:11.290Z,982.05
2017-11-07T03:09:11.691Z,982.06
2017-11-07T03:10:32.298Z,982.05
2017-11-07T03:11:10.292Z,982.04
2017-11-07T03:12:10.592Z,982.05
2017-11-07T03:13:09.771Z,982.00
2017-11-07T03:14:10.125Z,981.99
2017-11-07T03:15:10.343Z,981.98
2017-11-07T03:16:30.691Z,981.98
2017-11-07T03:17:10.642Z,981.97
2017-11-07T03:18:09.807Z,981.96
2017-11-07T03:19:09.822Z,981.96
2017-11-07T03:20:09.455Z,981.98
2017-11-07T03:21:10.206Z,981.99
2017-11-07T03:22:30.317Z,981.96
2017-11-07T03:23:10.093Z,981.96
2017-11-07T03:24:09.135Z,981.95
2017-11-07T03:25:16.755Z,981.96
2017-11-07T03:26:09.023Z,981.91
2017-11-07T03:27:09.470Z,981.91
2017-11-07T03:28:30.589Z,981.93
2017-11-07T03:29:09.383Z,981.87
2017-11-07T03:30:09.473Z,981.89
2017-11-07T03:31:08.583Z,981.93
2017-11-07T03:32:09.362Z,981.87
2017-11-07T03:33:09.174Z,981.87
2017-11-07T03:34:28.980Z,981.87
2017-11-07T03:35:09.581Z,981.85
2017-11-07T03:36:08.934Z,981.81
2017-11-07T03:37:09.466Z,981.79
2017-11-07T03:38:09.186Z,981.78
2017-11-07T03:39:09.861Z,981.80
2017-11-07T03:40:31.866Z,981.78
2017-11-07T03:41:08.927Z,981.76
2017-11-07T03:42:08.696Z,981.75
2017-11-07T03:43:09.235Z,981.75
2017-11-07T03:44:08.563Z,981.71
2017-11-07T03:45:08.656Z,981.68
2017-11-07T03:46:28.684Z,981.70
2017-11-07T03:47:09.167Z,981.63
2017-11-07T03:48:09.353Z,981.63
2017-11-07T03:49:08.582Z,981.65
2017-11-07T03:50:08.006Z,981.62
2017-11-07T03:51:09.795Z,981.61
2017-11-07T03:52:28.718Z,981.57
2017-11-07T03:53:08.695Z,981.57
2017-11-07T03:54:08.941Z,981.58
2017-11-07T03:55:14.271Z,981.55
2017-11-07T03:56:11.208Z,981.62
2017-11-07T03:57:08.900Z,981.53
2017-11-07T03:58:27.412Z,981.53
2017-11-07T03:59:09.053Z,981.50
2017-11-07T04:00:09.371Z,981.53
2017-11-07T04:01:08.570Z,981.47
2017-11-07T04:02:07.040Z,981.48
2017-11-07T04:03:08.473Z,981.48
2017-11-07T04:04:26.652Z,981.43
2017-11-07T04:05:08.288Z,981.46
2017-11-07T04:06:09.154Z,981.44
2017-11-07T04:07:07.714Z,981.49
2017-11-07T04:08:08.631Z,981.46
2017-11-07T04:09:07.089Z,981.46
2017-11-07T04:10:26.071Z,981.49
2017-11-07T04:11:05.553Z,981.45
2017-11-07T04:12:07.427Z,981.43
2017-11-07T04:13:09.675Z,981.43
2017-11-07T04:14:06.740Z,981.44
2017-11-07T04:15:08.477Z,981.45
2017-11-07T04:16:25.590Z,981.40
2017-11-07T04:17:07.134Z,981.44
2017-11-07T04:18:08.708Z,981.44
2017-11-07T04:19:08.198Z,981.40
2017-11-07T04:20:08.561Z,981.40
2017-11-07T04:21:06.674Z,981.41
2017-11-07T04:22:25.103Z,981.39
2017-11-07T04:23:06.728Z,981.40
2017-11-07T04:24:09.134Z,981.42
2017-11-07T04:25:07.919Z,981.42
2017-11-07T04:26:08.584Z,981.40
2017-11-07T04:27:10.219Z,981.38
2017-11-07T04:28:24.620Z,981.35
2017-11-07T04:29:06.232Z,981.38
2017-11-07T04:30:04.002Z,981.42
2017-11-07T04:31:04.780Z,981.31
2017-11-07T04:32:05.225Z,981.33
2017-11-07T04:33:04.699Z,981.34
2017-11-07T04:34:24.129Z,981.37
2017-11-07T04:35:06.676Z,981.38
2017-11-07T04:36:04.506Z,981.34
2017-11-07T04:37:09.089Z,981.39
2017-11-07T04:38:06.988Z,981.39
2017-11-07T04:40:46.357Z,981.45
2017-11-07T04:41:09.009Z,981.37
2017-11-07T04:42:09.650Z,981.44
2017-11-07T04:43:09.685Z,981.42
2017-11-07T04:44:08.759Z,981.42
2017-11-07T04:45:09.386Z,981.44
2017-11-07T04:46:28.565Z,981.40
2017-11-07T04:47:09.392Z,981.42
2017-11-07T04:48:09.819Z,981.45
2017-11-07T04:49:07.749Z,981.45
2017-11-07T04:50:09.850Z,981.49
2017-11-07T04:51:07.689Z,981.45
2017-11-07T04:52:28.859Z,981.46
2017-11-07T04:53:09.515Z,981.44
2017-11-07T04:54:08.631Z,981.41
2017-11-07T04:55:09.060Z,981.41
2017-11-07T04:56:09.570Z,981.45
2017-11-07T04:57:08.461Z,981.41
2017-11-07T04:58:27.669Z,981.42
2017-11-07T04:59:06.938Z,981.43
2017-11-07T05:00:09.049Z,981.46
2017-11-07T05:01:08.970Z,981.41
2017-11-07T05:02:07.082Z,981.47
2017-11-07T05:03:06.602Z,981.34
2017-11-07T05:04:26.489Z,981.42
2017-11-07T05:05:07.887Z,981.38
2017-11-07T05:06:08.672Z,981.35
2017-11-07T05:07:06.580Z,981.39
2017-11-07T05:08:06.035Z,981.35
2017-11-07T05:09:07.877Z,981.31
2017-11-07T05:10:25.997Z,981.32
2017-11-07T05:11:06.679Z,981.30
2017-11-07T05:12:07.300Z,981.32
2017-11-07T05:13:09.774Z,981.31
2017-11-07T05:14:06.858Z,981.33
2017-11-07T05:15:07.670Z,981.32
2017-11-07T05:16:25.515Z,981.29
2017-11-07T05:17:11.902Z,981.35
2017-11-07T05:18:05.200Z,981.34
2017-11-07T05:19:06.258Z,981.38
2017-11-07T05:20:06.192Z,981.27
2017-11-07T05:21:10.626Z,981.30
2017-11-07T05:22:25.027Z,981.26
2017-11-07T05:23:07.910Z,981.31
2017-11-07T05:24:06.426Z,981.30
2017-11-07T05:25:08.657Z,981.25
2017-11-07T05:26:11.109Z,981.22
2017-11-07T05:27:10.740Z,981.19
2017-11-07T05:28:24.541Z,981.17
2017-11-07T05:29:08.351Z,981.17
2017-11-07T05:30:08.039Z,981.14
2017-11-07T05:31:09.411Z,981.13
2017-11-07T05:32:08.982Z,981.16
2017-11-07T05:33:11.240Z,981.16
2017-11-07T05:34:24.065Z,981.15
2017-11-07T05:35:04.740Z,981.16
2017-11-07T05:36:12.838Z,981.12
2017-11-07T05:37:09.935Z,981.15
2017-11-07T05:38:05.034Z,981.15
2017-11-07T05:39:09.055Z,981.16
2017-11-07T05:40:23.577Z,981.16
2017-11-07T05:41:05.893Z,981.15
2017-11-07T05:42:08.740Z,981.14
2017-11-07T05:43:06.877Z,981.15
2017-11-07T05:44:05.691Z,981.12
2017-11-07T05:45:06.880Z,981.12
2017-11-07T05:46:23.085Z,981.10
2017-11-07T05:47:07.788Z,981.12
2017-11-07T05:48:05.466Z,981.15
2017-11-07T05:49:12.430Z,981.10
2017-11-07T05:50:04.739Z,981.10
2017-11-07T05:51:07.203Z,981.14
2017-11-07T05:52:22.607Z,981.10
2017-11-07T05:53:04.242Z,981.05
2017-11-07T05:54:09.148Z,981.09
2017-11-07T05:55:07.025Z,981.07
2017-11-07T05:56:05.258Z,981.12
2017-11-07T05:57:02.559Z,981.16
2017-11-07T05:58:22.116Z,981.18
2017-11-07T05:59:09.388Z,981.18
2017-11-07T06:00:01.491Z,981.17
2017-11-07T06:01:02.617Z,981.18
2017-11-07T06:02:03.978Z,981.17
2017-11-07T06:03:02.953Z,981.21
2017-11-07T06:04:23.553Z,981.16
2017-11-07T06:05:00.714Z,981.15
2017-11-07T06:06:00.603Z,981.16
2017-11-07T06:07:01.000Z,981.16
2017-11-07T06:08:01.445Z,981.15
2017-11-07T06:09:01.252Z,981.13
2017-11-07T06:10:21.144Z,981.17
2017-11-07T06:11:00.407Z,981.12
2017-11-07T06:12:05.975Z,981.13
2017-11-07T06:13:00.938Z,981.20
2017-11-07T06:14:00.611Z,981.23
2017-11-07T06:15:00.436Z,981.19
2017-11-07T06:16:20.666Z,981.15
2017-11-07T06:17:00.291Z,981.20
2017-11-07T06:18:00.071Z,981.17
2017-11-07T06:19:03.605Z,981.18
2017-11-07T06:19:59.512Z,981.21
2017-11-07T06:21:00.310Z,981.19
2017-11-07T06:22:20.185Z,981.22
2017-11-07T06:23:00.090Z,981.23
2017-11-07T06:23:59.552Z,981.24
2017-11-07T06:24:59.297Z,981.22
2017-11-07T06:25:59.157Z,981.24
2017-11-07T06:26:59.576Z,981.24
2017-11-07T06:28:19.694Z,981.21
2017-11-07T06:28:59.276Z,981.19
2017-11-07T06:29:59.148Z,981.20
2017-11-07T06:30:59.885Z,981.16
2017-11-07T06:31:58.669Z,981.21
2017-11-07T06:32:58.844Z,981.19
2017-11-07T06:34:19.209Z,981.15
2017-11-07T06:34:58.799Z,981.19
2017-11-07T06:35:58.771Z,981.19
2017-11-07T06:37:02.275Z,981.13
2017-11-07T06:37:58.676Z,981.13
2017-11-07T06:38:58.286Z,981.14
2017-11-07T06:40:18.725Z,981.14
2017-11-07T06:40:58.159Z,981.14
2017-11-07T06:41:58.036Z,981.08
2017-11-07T06:42:59.457Z,981.12
2017-11-07T06:43:57.910Z,981.12
2017-11-07T06:44:57.337Z,981.12
2017-11-07T06:46:18.238Z,981.09
2017-11-07T06:46:58.644Z,981.06
2017-11-07T06:47:57.945Z,981.10
2017-11-07T06:48:58.167Z,981.08
2017-11-07T06:49:57.372Z,981.08
2017-11-07T06:50:56.939Z,981.06
2017-11-07T06:52:17.759Z,981.05
2017-11-07T06:52:56.693Z,981.03
2017-11-07T06:53:56.622Z,981.03
2017-11-07T06:54:59.416Z,981.03
2017-11-07T06:56:00.134Z,981.01
2017-11-07T06:56:56.373Z,981.08
2017-11-07T06:58:17.273Z,980.99
2017-11-07T06:58:56.214Z,981.05
2017-11-07T06:59:59.060Z,981.02
2017-11-07T07:00:56.733Z,981.07
2017-11-07T07:01:55.969Z,981.09
2017-11-07T07:02:55.888Z,981.02
2017-11-07T07:04:16.808Z,981.08
2017-11-07T07:04:55.729Z,981.04
2017-11-07T07:05:55.647Z,981.01
2017-11-07T07:06:55.574Z,981.01
2017-11-07T07:07:55.488Z,981.03
2017-11-07T07:08:55.406Z,981.01
2017-11-07T07:10:16.310Z,981.00
2017-11-07T07:10:55.245Z,981.01
2017-11-07T07:11:55.165Z,981.01
2017-11-07T07:12:55.084Z,980.99
2017-11-07T07:13:55.004Z,981.02
2017-11-07T07:14:54.922Z,980.99
2017-11-07T07:16:15.828Z,981.01
2017-11-07T07:16:54.760Z,980.96
2017-11-07T07:17:54.788Z,980.97
2017-11-07T07:18:54.601Z,981.05
2017-11-07T07:19:54.519Z,981.09
2017-11-07T07:20:54.468Z,981.09
2017-11-07T07:22:15.339Z,981.12
2017-11-07T07:22:54.280Z,981.10
2017-11-07T07:23:54.200Z,981.05
2017-11-07T07:24:54.119Z,981.05
2017-11-07T07:25:54.038Z,981.06
2017-11-07T07:26:53.959Z,981.06
2017-11-07T07:28:14.860Z,981.06
2017-11-07T07:28:53.792Z,981.06
2017-11-07T07:29:53.716Z,981.08
2017-11-07T07:30:53.867Z,981.08
2017-11-07T07:31:53.684Z,981.06
2017-11-07T07:32:53.494Z,981.04
2017-11-07T07:34:14.749Z,981.00
2017-11-07T07:34:53.310Z,980.95
2017-11-07T07:35:54.251Z,980.95
2017-11-07T07:36:53.151Z,980.92
2017-11-07T07:37:53.077Z,980.92
2017-11-07T07:38:52.990Z,980.94
2017-11-07T07:40:14.334Z,980.95
2017-11-07T07:40:52.831Z,980.98
2017-11-07T07:41:52.751Z,980.97
2017-11-07T07:42:52.666Z,980.96
2017-11-07T07:43:52.591Z,980.89
2017-11-07T07:44:52.510Z,980.87
2017-11-07T07:46:14.004Z,980.91
2017-11-07T07:46:52.346Z,980.90
2017-11-07T07:47:52.269Z,980.88
2017-11-07T07:48:52.257Z,980.88
2017-11-07T07:49:52.108Z,980.86
2017-11-07T07:50:52.029Z,980.88
2017-11-07T07:52:13.776Z,980.89
2017-11-07T07:52:51.899Z,980.86
2017-11-07T07:53:51.788Z,980.86
2017-11-07T07:54:51.708Z,980.84
2017-11-07T07:55:51.629Z,980.87
2017-11-07T07:56:51.544Z,980.86
2017-11-07T07:58:12.620Z,980.84
2017-11-07T07:58:51.385Z,980.83
2017-11-07T07:59:51.308Z,980.82
2017-11-07T08:00:51.226Z,980.85
2017-11-07T08:01:51.145Z,980.87
2017-11-07T08:02:51.070Z,980.86
2017-11-07T08:04:12.374Z,980.91
2017-11-07T08:04:50.909Z,980.87
2017-11-07T08:05:50.826Z,980.86
2017-11-07T08:06:50.745Z,980.86
2017-11-07T08:07:50.667Z,980.87
2017-11-07T08:08:50.587Z,980.88
2017-11-07T08:10:11.732Z,980.86
2017-11-07T08:10:50.425Z,980.85
2017-11-07T08:11:50.348Z,980.85
2017-11-07T08:12:50.266Z,980.81
2017-11-07T08:13:50.187Z,980.79
2017-11-07T08:14:50.108Z,980.78
2017-11-07T08:16:11.257Z,980.77
2017-11-07T08:16:50.689Z,980.79
2017-11-07T08:17:51.435Z,980.73
2017-11-07T08:18:54.617Z,980.77
2017-11-07T08:19:49.706Z,980.74
2017-11-07T08:20:49.627Z,980.71
2017-11-07T08:22:12.021Z,980.74
2017-11-07T08:22:49.673Z,980.73
2017-11-07T08:23:49.387Z,980.69
2017-11-07T08:24:49.310Z,980.63
2017-11-07T08:25:49.225Z,980.63
2017-11-07T08:26:49.153Z,980.64
2017-11-07T08:28:10.515Z,980.60
2017-11-07T08:28:48.988Z,980.54
2017-11-07T08:29:48.915Z,980.54
2017-11-07T08:30:48.830Z,980.55
2017-11-07T08:31:48.749Z,980.52
2017-11-07T08:32:48.676Z,980.50
2017-11-07T08:34:10.186Z,980.55
2017-11-07T08:34:48.513Z,980.59
2017-11-07T08:35:48.433Z,980.59
2017-11-07T08:36:48.849Z,980.60
2017-11-07T08:37:48.282Z,980.55
2017-11-07T08:38:48.199Z,980.53
2017-11-07T08:40:09.688Z,980.54
2017-11-07T08:40:48.035Z,980.54
2017-11-07T08:41:47.956Z,980.48
2017-11-07T08:42:47.878Z,980.56
2017-11-07T08:43:48.540Z,980.49
2017-11-07T08:44:47.718Z,980.49
2017-11-07T08:46:09.742Z,980.52
2017-11-07T08:46:47.556Z,980.55
2017-11-07T08:47:47.479Z,980.55
2017-11-07T08:48:47.400Z,980.49
2017-11-07T08:49:47.322Z,980.51
2017-11-07T08:50:47.243Z,980.50
2017-11-07T08:52:09.700Z,980.49
2017-11-07T08:52:47.084Z,980.48
2017-11-07T08:53:47.012Z,980.50
2017-11-07T08:54:46.922Z,980.42
2017-11-07T08:55:47.231Z,980.44
2017-11-07T08:56:46.771Z,980.46
2017-11-07T08:58:09.875Z,980.44
2017-11-07T08:58:46.606Z,980.44
2017-11-07T08:59:46.530Z,980.42
2017-11-07T09:00:46.453Z,980.43
2017-11-07T09:01:46.365Z,980.42
2017-11-07T09:02:46.293Z,980.45
2017-11-07T09:04:09.452Z,980.45
2017-11-07T09:04:46.138Z,980.40
2017-11-07T09:05:46.736Z,980.40
2017-11-07T09:06:45.980Z,980.47
2017-11-07T09:07:45.897Z,980.46
2017-11-07T09:08:45.821Z,980.42
2017-11-07T09:10:09.755Z,980.40
2017-11-07T09:10:45.662Z,980.40
2017-11-07T09:11:45.606Z,980.39
2017-11-07T09:12:45.504Z,980.35
2017-11-07T09:13:45.422Z,980.35
2017-11-07T09:14:45.347Z,980.35
2017-11-07T09:16:10.256Z,980.32
2017-11-07T09:16:45.185Z,980.31
2017-11-07T09:17:45.116Z,980.32
2017-11-07T09:18:45.045Z,980.31
2017-11-07T09:19:44.986Z,980.28
2017-11-07T09:20:44.991Z,980.33
2017-11-07T09:22:08.112Z,980.30
2017-11-07T09:22:44.717Z,980.29
2017-11-07T09:23:44.940Z,980.28
2017-11-07T09:24:44.935Z,980.37
2017-11-07T09:25:44.887Z,980.23
2017-11-07T09:26:44.728Z,980.25
2017-11-07T09:28:07.124Z,980.18
2017-11-07T09:28:44.579Z,980.19
2017-11-07T09:29:44.947Z,980.20
2017-11-07T09:30:44.087Z,980.19
2017-11-07T09:31:44.944Z,980.16
2017-11-07T09:32:44.513Z,980.19
2017-11-07T09:34:08.617Z,980.20
2017-11-07T09:34:44.734Z,980.18
2017-11-07T09:35:43.944Z,980.18
2017-11-07T09:36:44.883Z,980.21
2017-11-07T09:37:43.739Z,980.16
2017-11-07T09:38:43.851Z,980.22
2017-11-07T09:40:06.566Z,980.19
2017-11-07T09:40:44.259Z,980.13
2017-11-07T09:41:43.590Z,980.18
2017-11-07T09:42:44.167Z,980.16
2017-11-07T09:43:43.616Z,980.16
2017-11-07T09:44:43.777Z,980.15
2017-11-07T09:46:05.711Z,980.15
2017-11-07T09:46:44.448Z,980.10
2017-11-07T09:47:43.767Z,980.07
2017-11-07T09:48:43.482Z,980.06
2017-11-07T09:49:43.474Z,980.11
2017-11-07T09:50:43.046Z,980.12
2017-11-07T09:52:05.326Z,980.08
2017-11-07T09:52:42.430Z,980.09
2017-11-07T09:53:42.509Z,980.08
2017-11-07T09:54:43.941Z,980.07
2017-11-07T09:55:42.791Z,980.00
2017-11-07T09:56:42.420Z,980.04
2017-11-07T09:58:05.460Z,980.01
2017-11-07T09:58:42.304Z,980.05
2017-11-07T09:59:43.078Z,980.05
2017-11-07T10:00:42.188Z,979.98
2017-11-07T10:01:41.823Z,980.01
2017-11-07T10:02:41.896Z,979.94
2017-11-07T10:04:04.455Z,979.94
2017-11-07T10:04:41.962Z,979.88
2017-11-07T10:05:41.801Z,979.89
2017-11-07T10:06:41.819Z,979.91
2017-11-07T10:07:41.744Z,979.91
2017-11-07T10:08:41.645Z,979.88
2017-11-07T10:10:03.628Z,979.87
2017-11-07T10:10:42.944Z,979.83
2017-11-07T10:11:43.974Z,979.85
2017-11-07T10:12:41.361Z,979.77
2017-11-07T10:13:41.049Z,979.80
2017-11-07T10:14:41.211Z,979.77
2017-11-07T10:16:07.192Z,979.80
2017-11-07T10:16:44.965Z,979.72
2017-11-07T10:17:41.293Z,979.70
2017-11-07T10:18:41.138Z,979.69
2017-11-07T10:19:45.540Z,979.67
2017-11-07T10:20:41.148Z,979.63
2017-11-07T10:22:02.780Z,979.64
2017-11-07T10:22:40.758Z,979.60
2017-11-07T10:23:40.649Z,979.68
2017-11-07T10:24:40.169Z,979.53
2017-11-07T10:25:39.960Z,979.57
2017-11-07T10:26:41.282Z,979.56
2017-11-07T10:28:00.691Z,979.49
2017-11-07T10:28:40.164Z,979.58
2017-11-07T10:29:40.698Z,979.49
2017-11-07T10:30:40.288Z,979.49
2017-11-07T10:31:40.048Z,979.56
2017-11-07T10:32:39.985Z,979.49
2017-11-07T10:34:01.417Z,979.52
2017-11-07T10:34:39.702Z,979.50
2017-11-07T10:35:43.452Z,979.48
2017-11-07T10:36:39.991Z,979.47
2017-11-07T10:37:40.153Z,979.50
2017-11-07T10:38:39.648Z,979.44
2017-11-07T10:39:59.830Z,979.41
2017-11-07T10:40:40.070Z,979.39
2017-11-07T10:41:39.724Z,979.40
2017-11-07T10:42:39.331Z,979.42
2017-11-07T10:43:39.682Z,979.40
2017-11-07T10:44:39.463Z,979.37
2017-11-07T10:45:59.564Z,979.35
2017-11-07T10:46:39.319Z,979.34
2017-11-07T10:47:40.586Z,979.30
2017-11-07T10:48:39.727Z,979.29
2017-11-07T10:49:39.393Z,979.28
2017-11-07T10:50:39.647Z,979.25
2017-11-07T10:51:59.607Z,979.26
2017-11-07T10:52:39.383Z,979.22
2017-11-07T10:53:38.000Z,979.21
2017-11-07T10:54:38.997Z,979.21
2017-11-07T10:55:39.398Z,979.15
2017-11-07T10:56:39.653Z,979.13
2017-11-07T10:57:59.429Z,979.12
2017-11-07T10:58:39.467Z,979.11
2017-11-07T10:59:39.138Z,979.09
2017-11-07T11:00:37.303Z,979.04
2017-11-07T11:01:39.443Z,979.05
2017-11-07T11:02:38.243Z,979.05
2017-11-07T11:03:59.255Z,979.04
2017-11-07T11:04:40.077Z,978.97
2017-11-07T11:05:39.738Z,979.01
2017-11-07T11:06:38.283Z,978.95
2017-11-07T11:07:38.397Z,978.92
2017-11-07T11:08:38.467Z,978.94
2017-11-07T11:09:57.454Z,979.02
2017-11-07T11:10:38.137Z,978.96
2017-11-07T11:11:39.378Z,978.94
2017-11-07T11:12:38.117Z,978.88
2017-11-07T11:13:40.688Z,978.92
2017-11-07T11:14:36.814Z,978.89
2017-11-07T11:15:56.874Z,978.81
2017-11-07T11:16:37.805Z,978.87
2017-11-07T11:17:38.974Z,978.85
2017-11-07T11:18:36.502Z,978.81
2017-11-07T11:19:37.081Z,978.83
2017-11-07T11:20:36.958Z,978.86
2017-11-07T11:21:56.415Z,978.85
2017-11-07T11:22:40.071Z,978.84
2017-11-07T11:23:36.866Z,978.83
2017-11-07T11:24:37.520Z,978.75
2017-11-07T11:25:36.489Z,978.82
2017-11-07T11:26:38.931Z,978.83
2017-11-07T11:27:55.949Z,978.80
2017-11-07T11:28:37.294Z,978.80
2017-11-07T11:29:36.091Z,978.72
2017-11-07T11:30:35.705Z,978.70
2017-11-07T11:31:37.408Z,978.72
2017-11-07T11:32:35.643Z,978.64
2017-11-07T11:33:55.493Z,978.57
2017-11-07T11:34:42.363Z,978.61
2017-11-07T11:35:35.207Z,978.60
2017-11-07T11:36:39.552Z,978.57
2017-11-07T11:37:38.990Z,978.57
2017-11-07T11:38:34.617Z,978.55
2017-11-07T11:39:55.015Z,978.59
2017-11-07T11:40:37.518Z,978.52
2017-11-07T11:41:37.393Z,978.52
2017-11-07T11:42:36.997Z,978.54
2017-11-07T11:43:39.764Z,978.54
2017-11-07T11:44:34.206Z,978.48
2017-11-07T11:45:54.559Z,978.48
2017-11-07T11:46:37.257Z,978.51
2017-11-07T11:47:38.975Z,978.44
2017-11-07T11:48:38.677Z,978.45
2017-11-07T11:49:39.046Z,978.36
2017-11-07T11:50:37.399Z,978.38
2017-11-07T11:51:54.099Z,978.37
2017-11-07T11:52:39.350Z,978.44
2017-11-07T11:53:35.499Z,978.38
2017-11-07T11:54:38.401Z,978.46
2017-11-07T11:55:36.391Z,978.39
2017-11-07T11:56:34.748Z,978.38
2017-11-07T11:57:53.641Z,978.32
2017-11-07T11:58:35.061Z,978.29
2017-11-07T11:59:36.793Z,978.34
2017-11-07T12:00:36.589Z,978.28
2017-11-07T12:01:33.491Z,978.25
2017-11-07T12:02:33.156Z,978.24
2017-11-07T12:03:53.195Z,978.24
2017-11-07T12:04:37.496Z,978.27
2017-11-07T12:05:32.955Z,978.22
2017-11-07T12:06:33.694Z,978.24
2017-11-07T12:07:33.994Z,978.16
2017-11-07T12:08:32.980Z,978.19
2017-11-07T12:09:52.750Z,978.16
2017-11-07T12:10:34.835Z,978.19
2017-11-07T12:11:34.509Z,978.11
2017-11-07T12:12:37.264Z,978.13
2017-11-07T12:13:33.500Z,978.05
2017-11-07T12:14:34.323Z,978.08
2017-11-07T12:15:52.308Z,978.08
2017-11-07T12:16:35.510Z,978.11
2017-11-07T12:17:31.172Z,977.99
2017-11-07T12:18:32.143Z,978.00
2017-11-07T12:19:32.164Z,977.95
2017-11-07T12:20:37.278Z,977.97
2017-11-07T12:21:51.866Z,977.94
2017-11-07T12:22:32.307Z,977.93
2017-11-07T12:23:31.599Z,977.95
2017-11-07T12:24:32.879Z,977.95
2017-11-07T12:25:31.064Z,977.94
2017-11-07T12:26:30.510Z,977.95
2017-11-07T12:27:51.421Z,977.95
2017-11-07T12:28:32.062Z,977.86